Time;durP1;ratioP1;P1;durP2;ratioP2;P2;SDS_P1;SDS_P2;PMS_P1;PMS_P2;Temp;Humidity;BMP_temperature;BMP_pressure;BME280_temperature;BME280_humidity;BME280_pressure;Samples;Min_cycle;Max_cycle;Signal;HPM_P1;HPM_P2
2022/12/16 00:01:08;;;;;;;74.53;38.67;;;-2.90;84.10;;;;;;5017380;28;20439;-78
2022/12/16 00:03:35;;;;;;;71.03;37.63;;;-3.00;83.90;;;;;;5018638;28;20454;-79
2022/12/16 00:06:03;;;;;;;70.87;35.80;;;-3.00;84.00;;;;;;5022518;28;20447;-79
2022/12/16 00:08:32;;;;;;;62.20;32.57;;;-3.00;84.10;;;;;;5021685;28;20471;-79
2022/12/16 00:11:00;;;;;;;53.60;32.40;;;-3.00;84.30;;;;;;5016903;28;20841;-79
2022/12/16 00:13:28;;;;;;;66.23;35.97;;;-3.00;84.90;;;;;;5017499;28;20448;-79
2022/12/16 00:15:56;;;;;;;64.77;35.17;;;-3.00;85.20;;;;;;5016280;28;20444;-79
2022/12/16 00:18:23;;;;;;;61.30;34.67;;;-3.00;85.10;;;;;;5017714;28;20455;-79
2022/12/16 00:20:53;;;;;;;56.10;32.00;;;-3.00;85.00;;;;;;5017096;28;20502;-79
2022/12/16 00:23:20;;;;;;;54.10;30.53;;;-3.00;85.00;;;;;;5017209;28;20463;-78
2022/12/16 00:25:47;;;;;;;66.30;34.47;;;-3.00;84.90;;;;;;5020659;28;20835;-78
2022/12/16 00:28:15;;;;;;;51.87;30.67;;;-3.00;84.90;;;;;;5018524;28;20452;-78
2022/12/16 00:30:43;;;;;;;60.43;29.27;;;-3.00;84.90;;;;;;5015916;28;20459;-78
2022/12/16 00:33:11;;;;;;;56.20;31.50;;;-3.00;85.00;;;;;;5015796;28;20455;-78
2022/12/16 00:35:38;;;;;;;51.70;30.37;;;-3.00;85.10;;;;;;5015753;28;20472;-78
2022/12/16 00:38:05;;;;;;;58.37;30.90;;;-3.00;85.30;;;;;;5016132;28;20451;-78
2022/12/16 00:40:32;;;;;;;64.57;32.67;;;-3.00;85.50;;;;;;5016376;28;21030;-78
2022/12/16 00:42:59;;;;;;;58.00;30.20;;;-3.00;85.50;;;;;;5016010;28;20791;-78
2022/12/16 00:45:26;;;;;;;52.37;29.17;;;-3.00;85.30;;;;;;5015917;28;20464;-78
2022/12/16 00:47:53;;;;;;;58.40;30.33;;;-3.00;85.10;;;;;;5016565;28;20447;-78
2022/12/16 00:50:21;;;;;;;55.10;31.17;;;-3.00;84.90;;;;;;5016631;28;20471;-78
2022/12/16 00:52:48;;;;;;;50.77;28.53;;;-3.00;84.90;;;;;;5016618;28;20448;-78
2022/12/16 00:55:15;;;;;;;52.30;29.10;;;-3.10;85.30;;;;;;5016540;28;20468;-79
2022/12/16 00:57:43;;;;;;;56.67;30.67;;;-3.10;84.50;;;;;;5016270;28;20456;-78
2022/12/16 01:00:12;;;;;;;67.33;31.77;;;-3.10;84.50;;;;;;5014946;28;20479;-78
2022/12/16 01:02:40;;;;;;;67.83;32.30;;;-3.10;84.60;;;;;;5017021;28;20518;-79
2022/12/16 01:05:07;;;;;;;61.20;31.00;;;-3.10;84.60;;;;;;5015883;28;20523;-79
2022/12/16 01:07:35;;;;;;;59.10;32.00;;;-3.10;84.60;;;;;;5015002;28;20454;-79
2022/12/16 01:10:03;;;;;;;48.57;29.43;;;-3.10;84.60;;;;;;5016106;28;20451;-78
2022/12/16 01:12:30;;;;;;;58.43;31.60;;;-3.10;84.50;;;;;;5015480;28;20448;-78
2022/12/16 01:14:57;;;;;;;53.40;32.03;;;-3.10;84.50;;;;;;5014713;28;20468;-78
2022/12/16 01:17:25;;;;;;;49.43;28.37;;;-3.10;84.60;;;;;;5015613;28;20450;-78
2022/12/16 01:19:51;;;;;;;59.73;29.63;;;-3.10;84.60;;;;;;5014639;28;20508;-79
2022/12/16 01:22:21;;;;;;;61.70;31.47;;;-3.10;84.50;;;;;;5014857;28;20952;-78
2022/12/16 01:24:49;;;;;;;51.73;30.97;;;-3.10;84.50;;;;;;5015121;28;20489;-78
2022/12/16 01:27:16;;;;;;;56.47;30.67;;;-3.10;84.50;;;;;;5014876;28;20456;-78
2022/12/16 01:29:43;;;;;;;51.50;29.97;;;-3.10;84.60;;;;;;5015204;28;20459;-79
2022/12/16 01:32:12;;;;;;;55.00;29.50;;;-3.10;84.30;;;;;;5015610;28;20436;-79
2022/12/16 01:34:39;;;;;;;48.67;29.50;;;-3.20;84.20;;;;;;5016121;28;20468;-78
2022/12/16 01:37:05;;;;;;;59.10;31.07;;;-3.10;84.30;;;;;;5014631;28;20444;-78
2022/12/16 01:39:32;;;;;;;55.43;28.80;;;-3.20;84.30;;;;;;5014323;28;20522;-78
2022/12/16 01:42:00;;;;;;;54.77;28.60;;;-3.20;84.40;;;;;;5014287;28;20459;-78
2022/12/16 01:44:27;;;;;;;50.00;28.33;;;-3.20;84.50;;;;;;5014283;28;20472;-78
2022/12/16 01:46:58;;;;;;;49.50;29.40;;;-3.20;84.50;;;;;;5014338;28;20448;-79
2022/12/16 01:49:28;;;;;;;48.67;29.00;;;-3.30;84.20;;;;;;5014582;28;20460;-78
2022/12/16 01:51:58;;;;;;;49.20;28.87;;;-3.30;83.90;;;;;;4995318;28;20437;-79
2022/12/16 01:54:30;;;;;;;57.60;30.00;;;-3.30;83.80;;;;;;4994582;28;21012;-78
2022/12/16 01:57:01;;;;;;;45.87;29.57;;;-3.30;83.70;;;;;;4995376;28;20448;-78
2022/12/16 01:59:30;;;;;;;58.17;32.53;;;-3.30;83.80;;;;;;4995109;28;20804;-79
2022/12/16 02:01:58;;;;;;;50.13;27.63;;;-3.30;83.70;;;;;;4994770;28;20949;-78
2022/12/16 02:04:25;;;;;;;48.57;28.50;;;-3.30;83.70;;;;;;4994613;28;20500;-78
2022/12/16 02:06:52;;;;;;;53.20;28.50;;;-3.30;83.90;;;;;;4994716;28;20817;-79
2022/12/16 02:09:19;;;;;;;54.70;29.77;;;-3.30;84.20;;;;;;4995234;28;20468;-78
2022/12/16 02:12:06;;;;;;;48.63;28.40;;;-3.30;84.30;;;;;;4996703;28;20772;-79
2022/12/16 02:14:52;;;;;;;49.97;27.10;;;-3.40;84.00;;;;;;4998800;28;20480;-78
2022/12/16 02:17:23;;;;;;;52.90;28.30;;;-3.40;83.60;;;;;;4999293;28;20429;-79
2022/12/16 02:20:22;;;;;;;48.47;27.77;;;-3.40;83.60;;;;;;4998989;28;20472;-78
2022/12/16 02:23:05;;;;;;;47.10;26.40;;;-3.40;83.50;;;;;;4999424;28;20437;-78
2022/12/16 02:25:52;;;;;;;50.07;27.30;;;-3.40;83.70;;;;;;4999137;28;20507;-79
2022/12/16 02:28:35;;;;;;;46.60;27.27;;;-3.40;83.90;;;;;;4998877;28;20806;-78
2022/12/16 02:31:20;;;;;;;52.27;27.20;;;-3.40;84.00;;;;;;4998175;28;20818;-78
2022/12/16 02:33:58;;;;;;;59.33;28.43;;;-3.50;83.60;;;;;;4999257;28;20476;-78
2022/12/16 02:36:42;;;;;;;48.63;28.77;;;-3.50;83.50;;;;;;5000582;28;20467;-78
2022/12/16 02:39:14;;;;;;;45.53;28.20;;;-3.50;83.70;;;;;;4998769;28;20448;-78
2022/12/16 02:41:47;;;;;;;51.63;28.73;;;-3.50;83.90;;;;;;4999852;28;20465;-78
2022/12/16 02:44:15;;;;;;;52.10;27.97;;;-3.50;84.10;;;;;;4998914;28;20472;-79
2022/12/16 02:46:53;;;;;;;53.73;28.13;;;-3.50;84.20;;;;;;4998688;28;20459;-79
2022/12/16 02:49:44;;;;;;;45.87;27.30;;;-3.50;84.30;;;;;;4998307;28;20444;-79
2022/12/16 02:52:12;;;;;;;54.17;28.40;;;-3.50;84.50;;;;;;4999321;28;20453;-78
2022/12/16 02:54:39;;;;;;;49.93;29.47;;;-3.40;84.80;;;;;;4998028;28;20468;-78
2022/12/16 02:57:19;;;;;;;44.47;26.37;;;-3.40;85.00;;;;;;4997988;28;20448;-78
2022/12/16 02:59:56;;;;;;;44.97;28.77;;;-3.50;84.80;;;;;;4998388;28;20433;-79
2022/12/16 03:02:28;;;;;;;52.57;27.37;;;-3.50;84.60;;;;;;4998301;28;20925;-77
2022/12/16 03:05:00;;;;;;;50.40;29.20;;;-3.50;84.50;;;;;;4999096;28;20499;-79
2022/12/16 03:07:31;;;;;;;50.37;28.47;;;-3.50;84.20;;;;;;4997782;28;20444;-78
2022/12/16 03:09:59;;;;;;;46.13;27.57;;;-3.50;84.10;;;;;;4998290;28;20932;-79
2022/12/16 03:12:27;;;;;;;53.90;30.60;;;-3.50;84.20;;;;;;4997932;28;20445;-79
2022/12/16 03:14:55;;;;;;;55.60;29.03;;;-3.50;84.20;;;;;;4997191;28;20989;-79
2022/12/16 03:17:25;;;;;;;51.37;29.17;;;-3.50;84.20;;;;;;4997598;28;20983;-78
2022/12/16 03:19:57;;;;;;;50.60;29.33;;;-3.50;84.20;;;;;;4997237;28;20931;-77
2022/12/16 03:22:28;;;;;;;56.07;29.63;;;-3.50;84.00;;;;;;4997125;28;20929;-78
2022/12/16 03:24:55;;;;;;;48.83;28.73;;;-3.50;83.90;;;;;;4998120;28;20473;-78
2022/12/16 03:27:27;;;;;;;46.83;28.37;;;-3.50;83.80;;;;;;4997870;28;20448;-78
2022/12/16 03:30:00;;;;;;;51.20;29.30;;;-3.50;83.60;;;;;;4997657;28;20468;-78
2022/12/16 03:32:35;;;;;;;52.67;28.57;;;-3.50;83.50;;;;;;4997588;28;20918;-78
2022/12/16 03:35:09;;;;;;;46.30;26.27;;;-3.60;83.50;;;;;;4997126;28;20476;-78
2022/12/16 03:37:38;;;;;;;55.47;30.00;;;-3.50;83.60;;;;;;4998178;28;20455;-78
2022/12/16 03:40:09;;;;;;;54.80;28.93;;;-3.50;83.80;;;;;;4997116;28;20488;-78
2022/12/16 03:42:43;;;;;;;50.90;27.30;;;-3.60;83.60;;;;;;4997909;28;20468;-77
2022/12/16 03:45:15;;;;;;;46.43;28.80;;;-3.60;83.60;;;;;;4997707;28;20833;-78
2022/12/16 03:47:48;;;;;;;47.27;28.47;;;-3.60;83.80;;;;;;4997600;28;20441;-78
2022/12/16 03:50:16;;;;;;;45.50;26.07;;;-3.60;83.80;;;;;;4996788;28;20444;-78
2022/12/16 03:52:42;;;;;;;51.63;29.03;;;-3.60;84.10;;;;;;4997277;28;20445;-78
2022/12/16 03:55:09;;;;;;;49.63;27.77;;;-3.60;84.10;;;;;;4996607;28;21019;-78
2022/12/16 03:57:36;;;;;;;47.17;27.10;;;-3.60;84.30;;;;;;4997174;28;20472;-78
2022/12/16 04:00:03;;;;;;;50.23;27.47;;;-3.60;84.20;;;;;;4997177;28;20456;-78
2022/12/16 04:02:30;;;;;;;50.90;25.97;;;-3.60;84.10;;;;;;4996821;28;20489;-78
2022/12/16 04:04:58;;;;;;;48.63;26.13;;;-3.60;84.10;;;;;;4997344;28;20469;-78
2022/12/16 04:07:25;;;;;;;46.93;26.20;;;-3.60;84.90;;;;;;4996744;28;20983;-78
2022/12/16 04:09:52;;;;;;;44.30;26.40;;;-3.60;84.10;;;;;;4996332;28;20452;-78
2022/12/16 04:26:13;;;;;;;53.20;26.40;;;-3.70;84.10;;;;;;4999829;28;20492;-79
2022/12/16 04:28:40;;;;;;;49.73;24.93;;;-3.80;84.00;;;;;;5004038;28;20453;-78
2022/12/16 04:31:07;;;;;;;46.10;25.00;;;-3.80;84.10;;;;;;5007897;28;20528;-78
